Latest Weather Observations for Tindal

IDD60801

Issued at 11:41 pm CST Sunday 20 May 2018 (issued every 10 minutes, with the page automatically refreshed every 10 minutes)

About weather observations | Map of weather stations | Latest weather observations for NT | Other Formats
Station Details ID: 014932 Name: TINDAL RAAF Lat: -14.52 Lon: 132.38 Height: 133.6 m
Data from the previous 72 hours. | See also: Recent months at Tindal
Date/Time
CST
Temp
°C
App
Temp
°C
Dew
Point
°C
Rel
Hum
%
Delta-T
°C
Wind Press
QNH
hPa
Press
MSL
hPa
Rain since
9am
mm
Dir  Spd
km/h
Gust
km/h
Spd
kts
Gust
kts
20/11:30pm 17.8 16.2 11.6 67 3.4 SE 11 11 6 6 1015.3 1014.7 0.0
20/11:00pm 17.9 16.7 11.7 67 3.4 ESE 9 11 5 6 1015.3 1014.7 0.0
20/10:30pm 18.2 17.0 11.7 66 3.6 SE 9 9 5 5 1015.4 1014.8 0.0
20/10:00pm 18.2 17.0 11.5 65 3.7 SE 9 9 5 5 1015.5 1014.9 0.0
20/09:30pm 18.9 17.7 11.7 63 4.0 SE 9 11 5 6 1015.5 1014.9 0.0
20/09:00pm 18.5 17.4 11.8 65 3.7 SSE 9 11 5 6 1015.4 1014.8 0.0
20/08:30pm 20.1 19.3 11.8 59 4.6 SE 7 9 4 5 1015.0 1014.4 0.0
20/08:00pm 20.9 19.7 11.5 55 5.2 ESE 9 9 5 5 1014.4 1013.7 0.0
20/07:30pm 23.6 22.6 11.0 45 7.1 ESE 7 9 4 5 1014.1 1013.4 0.0
20/07:00pm 25.1 23.0 9.8 38 8.5 ESE 11 15 6 8 1013.8 1013.1 0.0
20/06:30pm 26.6 24.0 9.5 34 9.5 ESE 13 15 7 8 1013.2 1012.5 0.0
20/06:00pm 28.4 25.0 9.2 30 10.7 ESE 17 22 9 12 1013.0 1012.3 0.0
20/05:30pm 29.5 26.1 9.1 28 11.4 ESE 17 26 9 14 1012.7 1012.0 0.0
20/05:00pm 30.0 25.6 9.0 27 11.7 ESE 22 33 12 18 1012.4 1011.7 0.0
20/04:30pm 30.1 25.4 9.1 27 11.8 ESE 24 33 13 18 1012.2 1011.5 0.0
20/04:00pm 30.4 25.9 8.7 26 12.1 ESE 22 32 12 17 1012.2 1011.5 0.0
20/03:30pm 31.0 26.5 8.7 25 12.5 ESE 22 35 12 19 1012.3 1011.6 0.0
20/03:00pm 30.5 25.8 7.7 24 12.5 ESE 22 32 12 17 1012.5 1011.8 0.0
20/02:30pm 30.5 25.4 7.7 24 12.5 ESE 24 37 13 20 1012.6 1011.9 0.0
20/02:00pm 30.3 24.0 7.5 24 12.5 E 30 41 16 22 1013.1 1012.4 0.0
20/01:30pm 30.0 24.4 7.2 24 12.4 E 26 35 14 19 1013.5 1012.8 0.0
20/01:00pm 29.5 25.0 6.8 24 12.2 ESE 20 33 11 18 1014.1 1013.4 0.0
20/12:30pm 28.8 23.1 6.8 25 11.8 E 26 39 14 21 1014.4 1013.7 0.0
20/12:00pm 28.1 21.9 6.2 25 11.6 E 28 43 15 23 1014.8 1014.2 0.0
20/11:30am 27.9 22.6 6.6 26 11.3 ESE 24 33 13 18 1015.2 1014.6 0.0
20/11:00am 27.0 20.7 5.9 26 11.0 ESE 28 43 15 23 1015.6 1015.0 0.0
20/10:30am 26.0 19.6 5.0 26 10.7 E 28 39 15 21 1016.0 1015.3 0.0
20/10:02am 25.3 18.9 5.0 27 10.3 ESE 28 46 15 25 1015.8 1015.1 0.0
20/10:00am 25.7 19.3 5.3 27 10.5 ESE 28 39 15 21 1015.9 1015.2 0.0
20/09:30am 24.6 19.8 5.4 29 9.8 ESE 20 32 11 17 1016.0 1015.3 0.0
20/09:00am 23.2 18.6 5.6 32 8.9 SE 19 28 10 15 1015.8 1015.1 0.0
20/08:30am 20.9 17.6 7.9 43 6.8 SE 15 24 8 13 1015.5 1014.9 0.0
20/08:00am 18.6 16.2 8.8 53 5.1 SE 11 15 6 8 1015.1 1014.5 0.0
20/07:30am 16.2 14.0 9.4 64 3.5 SSE 11 11 6 6 1014.6 1013.9 0.0
20/07:00am 15.5 13.3 9.2 66 3.3 SE 11 13 6 7 1014.3 1013.6 0.0
20/06:30am 16.4 13.7 9.1 62 3.8 SE 13 15 7 8 1014.0 1013.3 0.0
20/06:00am 16.7 14.1 9.4 62 3.8 SE 13 15 7 8 1013.8 1013.1 0.0
20/05:30am 16.9 14.4 9.6 62 3.8 SSE 13 15 7 8 1013.5 1012.8 0.0
20/05:00am 17.2 14.8 9.9 62 3.9 SE 13 17 7 9 1013.3 1012.6 0.0
20/04:30am 15.7 13.9 10.7 72 2.7 SE 11 15 6 8 1013.1 1012.4 0.0
20/04:00am 15.9 14.4 10.4 70 2.9 SE 9 11 5 6 1013.2 1012.5 0.0
20/03:30am 15.8 14.2 10.1 69 3.0 SSE 9 11 5 6 1013.1 1012.4 0.0
20/03:00am 16.3 14.6 9.9 66 3.4 SSE 9 11 5 6 1013.5 1012.8 0.0
20/02:30am 16.6 14.6 10.0 65 3.5 SE 11 13 6 7 1013.7 1013.0 0.0
20/02:00am 15.5 13.4 9.6 68 3.1 SSE 11 13 6 7 1013.7 1013.0 0.0
20/01:30am 15.8 14.4 9.5 66 3.3 SE 7 9 4 5 1013.9 1013.2 0.0
20/01:00am 16.1 14.3 9.5 65 3.4 SSE 9 11 5 6 1014.1 1013.4 0.0
20/12:30am 16.0 14.3 9.7 66 3.3 SE 9 11 5 6 1014.4 1013.7 0.0
20/12:00am 16.1 14.4 9.8 66 3.3 SE 9 13 5 7 1014.8 1014.2 0.0
 
Date/Time
CST
Temp
°C
App
Temp
°C
Dew
Point
°C
Rel
Hum
%
Delta-T
°C
Wind Press
QNH
hPa
Press
MSL
hPa
Rain since
9am
mm
Dir  Spd
km/h
Gust
km/h
Spd
kts
Gust
kts
19/11:30pm 16.0 14.6 9.7 66 3.3 ESE 7 9 4 5 1014.9 1014.3 0.0
19/11:00pm 15.6 13.8 9.5 67 3.2 ESE 9 11 5 6 1015.0 1014.4 0.0
19/10:30pm 16.3 14.5 9.5 64 3.6 SE 9 11 5 6 1015.0 1014.4 0.0
19/10:00pm 15.8 14.4 9.7 67 3.2 SE 7 9 4 5 1014.8 1014.2 0.0
19/09:30pm 16.4 14.6 9.3 63 3.7 SE 9 9 5 5 1014.8 1014.2 0.0
19/09:00pm 16.8 15.0 9.5 62 3.8 SE 9 9 5 5 1014.6 1013.9 0.0
19/08:30pm 17.3 15.5 9.5 60 4.1 SE 9 11 5 6 1014.3 1013.6 0.0
19/08:00pm 18.0 16.2 9.4 57 4.5 SE 9 11 5 6 1014.0 1013.3 0.0
19/07:30pm 19.6 18.1 9.2 51 5.5 SE 7 7 4 4 1013.5 1012.8 0.0
19/07:00pm 21.4 19.3 8.3 43 6.9 SE 9 11 5 6 1013.2 1012.5 0.0
19/06:30pm 23.5 20.8 7.2 35 8.5 SE 11 13 6 7 1012.9 1012.2 0.0
19/06:00pm 26.5 22.4 6.0 27 10.7 ESE 17 20 9 11 1012.5 1011.8 0.0
19/05:30pm 27.8 23.7 6.0 25 11.5 ESE 17 26 9 14 1012.0 1011.3 0.0
19/05:00pm 28.3 23.2 5.8 24 11.8 ESE 22 33 12 18 1011.7 1011.0 0.0
19/04:30pm 29.1 24.4 5.9 23 12.3 SE 20 28 11 15 1011.4 1010.7 0.0
19/04:00pm 29.5 25.1 4.9 21 12.8 ESE 17 24 9 13 1011.4 1010.7 0.0
19/03:30pm 28.9 24.1 4.4 21 12.6 ESE 19 28 10 15 1011.6 1010.9 0.0
19/03:00pm 29.2 24.2 4.6 21 12.7 E 20 26 11 14 1011.6 1010.9 0.0
19/02:30pm 29.3 24.4 4.0 20 13.0 ESE 19 32 10 17 1011.7 1011.0 0.0
19/02:00pm 28.6 23.7 4.2 21 12.5 ESE 19 28 10 15 1012.2 1011.5 0.0
19/01:30pm 27.9 22.3 3.6 21 12.3 ESE 22 32 12 17 1012.8 1012.1 0.0
19/01:00pm 27.5 21.4 2.6 20 12.3 E 24 33 13 18 1013.3 1012.6 0.0
19/12:30pm 27.1 20.6 2.9 21 12.0 ESE 26 35 14 19 1013.8 1013.1 0.0
19/12:00pm 26.6 20.0 1.8 20 12.0 ESE 26 37 14 20 1014.3 1013.6 0.0
19/11:30am 26.1 18.6 1.4 20 11.8 ESE 30 41 16 22 1014.6 1013.9 0.0
19/11:00am 25.7 18.2 1.1 20 11.7 E 30 41 16 22 1014.9 1014.3 0.0
19/10:30am 24.9 18.1 1.1 21 11.2 ESE 26 35 14 19 1015.2 1014.6 0.0
19/10:00am 23.8 18.3 2.0 24 10.4 SE 20 32 11 17 1015.6 1015.0 0.0
19/09:30am 21.7 16.0 0.8 25 9.6 SE 20 30 11 16 1015.6 1015.0 0.0
19/09:00am 20.2 14.6 1.1 28 8.7 SE 20 33 11 18 1015.4 1014.8 0.0
19/08:30am 18.1 12.8 2.0 34 7.3 SE 19 24 10 13 1015.3 1014.7 0.0
19/08:00am 15.9 12.4 3.7 44 5.7 SE 11 17 6 9 1014.9 1014.3 0.0
19/07:30am 13.5 9.8 4.6 55 4.1 SE 13 15 7 8 1014.8 1014.2 0.0
19/07:00am 11.7 7.7 5.1 64 3.0 SSE 15 15 8 8 1014.5 1013.8 0.0
19/06:30am 11.2 7.6 5.1 66 2.8 SSE 13 15 7 8 1014.1 1013.4 0.0
19/06:00am 11.2 8.1 5.5 68 2.6 SE 11 11 6 6 1014.0 1013.3 0.0
19/05:30am 12.1 8.6 5.3 63 3.2 SE 13 15 7 8 1013.6 1012.9 0.0
19/05:00am 12.2 8.9 6.5 68 2.7 SE 13 13 7 7 1013.5 1012.8 0.0
19/04:30am 12.1 8.9 7.0 71 2.5 SE 13 15 7 8 1013.4 1012.7 0.0
19/04:00am 13.6 10.8 6.9 64 3.3 SE 11 13 6 7 1013.5 1012.8 0.0
19/03:30am 13.1 10.1 7.8 70 2.6 SE 13 15 7 8 1013.3 1012.6 0.0
19/03:00am 13.2 10.7 8.1 71 2.5 SE 11 13 6 7 1013.3 1012.6 0.0
19/02:30am 13.8 11.0 8.4 70 2.7 SE 13 15 7 8 1013.7 1013.0 0.0
19/02:00am 13.7 10.9 8.7 72 2.5 SE 13 13 7 7 1013.7 1013.0 0.0
19/01:30am 14.6 12.2 8.8 68 3.0 SSE 11 11 6 6 1014.0 1013.3 0.0
19/01:00am 15.2 12.5 8.9 66 3.2 SSE 13 13 7 7 1014.2 1013.5 0.0
19/12:30am 15.6 13.6 8.8 64 3.5 SE 9 13 5 7 1014.7 1014.0 0.0
19/12:00am 16.0 13.2 8.7 62 3.8 SSE 13 15 7 8 1014.8 1014.2 0.0
 
Date/Time
CST
Temp
°C
App
Temp
°C
Dew
Point
°C
Rel
Hum
%
Delta-T
°C
Wind Press
QNH
hPa
Press
MSL
hPa
Rain since
9am
mm
Dir  Spd
km/h
Gust
km/h
Spd
kts
Gust
kts
18/11:30pm 16.9 14.5 8.6 58 4.3 SE 11 13 6 7 1014.8 1014.2 0.0
18/11:00pm 18.3 15.8 8.3 52 5.2 SE 11 15 6 8 1014.8 1014.2 0.0
18/10:30pm 15.7 13.4 8.9 64 3.5 SE 11 13 6 7 1014.6 1013.9 0.0
18/10:00pm 16.1 14.1 8.8 62 3.8 SE 9 11 5 6 1014.6 1013.9 0.0
18/09:30pm 16.1 13.8 9.1 63 3.6 SE 11 11 6 6 1014.7 1014.0 0.0
18/09:00pm 16.5 14.6 9.0 61 3.9 SE 9 11 5 6 1014.6 1013.9 0.0
18/08:30pm 17.3 15.4 9.0 58 4.3 SE 9 11 5 6 1014.4 1013.7 0.0
18/08:00pm 18.3 16.3 8.6 53 5.0 SE 9 11 5 6 1013.9 1013.2 0.0
18/07:30pm 19.6 17.5 8.3 48 5.9 SSE 9 11 5 6 1013.3 1012.6 0.0
18/07:00pm 22.0 20.1 7.4 39 7.6 SSE 7 9 4 5 1012.9 1012.2 0.0
18/06:30pm 23.5 20.3 6.7 34 8.7 SE 13 15 7 8 1012.4 1011.7 0.0
18/06:00pm 26.1 22.4 6.2 28 10.4 SE 15 22 8 12 1012.2 1011.5 0.0
18/05:30pm 27.7 23.2 5.9 25 11.4 ESE 19 26 10 14 1011.9 1011.2 0.0
18/05:00pm 28.4 23.7 5.9 24 11.8 SE 20 32 11 17 1011.6 1010.9 0.0
18/04:30pm 28.6 23.1 6.1 24 11.9 ESE 24 33 13 18 1011.6 1010.9 0.0
18/04:00pm 29.2 24.3 5.3 22 12.5 ESE 20 30 11 16 1011.6 1010.9 0.0
18/03:30pm 29.3 23.7 5.4 22 12.5 SE 24 37 13 20 1011.8 1011.1 0.0
18/03:00pm 29.3 24.1 5.4 22 12.5 ESE 22 37 12 20 1012.0 1011.3 0.0
18/02:30pm 28.8 23.1 5.0 22 12.4 SE 24 33 13 18 1012.3 1011.6 0.0
18/02:00pm 29.0 23.3 5.1 22 12.5 ESE 24 35 13 19 1012.5 1011.8 0.0
18/01:30pm 28.0 21.6 5.0 23 11.9 ESE 28 41 15 22 1012.9 1012.2 0.0
18/01:00pm 27.8 21.4 5.4 24 11.7 E 28 41 15 22 1013.5 1012.8 0.0
18/12:30pm 27.7 21.3 5.3 24 11.6 ESE 28 44 15 24 1014.0 1013.3 0.0
18/12:00pm 27.0 19.5 4.7 24 11.4 E 33 56 18 30 1014.3 1013.6 0.0
18/11:31am 27.5 20.8 5.7 25 11.4 ESE 30 48 16 26 1014.6 1013.9 0.0
18/11:30am 26.9 19.7 5.2 25 11.2 ESE 32 48 17 26 1014.6 1013.9 0.0
18/11:17am 26.7 20.3 5.1 25 11.1 ESE 28 46 15 25 1015.0 1014.4 0.0
18/11:00am 26.3 20.2 4.7 25 11.0 ESE 26 39 14 21 1015.2 1014.6 0.0
18/10:30am 24.7 18.7 3.4 25 10.5 SE 24 33 13 18 1015.5 1014.9 0.0
18/10:00am 23.8 16.6 3.2 26 10.0 SE 30 44 16 24 1015.9 1015.2 0.0
18/09:30am 22.2 15.6 2.3 27 9.4 ESE 26 41 14 22 1015.8 1015.1 0.0
18/09:00am 21.0 14.8 2.3 29 8.8 SE 24 35 13 19 1015.6 1015.0 0.0
18/08:30am 18.9 15.0 3.5 36 7.3 SE 13 20 7 11 1015.4 1014.8 0.0
18/08:00am 14.8 11.6 3.3 46 5.2 SE 9 11 5 6 1015.2 1014.6 0.0
18/07:30am 11.8 8.7 3.8 58 3.6 SE 9 11 5 6 1014.8 1014.2 0.0
18/07:00am 10.0 6.5 3.5 64 2.9 SE 11 11 6 6 1014.7 1014.0 0.0
18/06:30am 10.9 8.1 3.2 59 3.4 SE 7 9 4 5 1014.5 1013.8 0.0
18/06:00am 11.7 8.5 3.0 55 3.8 SE 9 11 5 6 1014.2 1013.5 0.0
18/05:30am 12.5 8.5 2.7 51 4.3 SSE 13 13 7 7 1014.2 1013.5 0.0
18/05:00am 14.6 9.7 2.2 43 5.5 SE 17 20 9 11 1014.1 1013.4 0.0
18/04:30am 14.8 9.4 2.4 43 5.5 SE 20 24 11 13 1013.9 1013.2 0.0
18/04:00am 13.6 8.8 2.8 48 4.8 SSE 17 20 9 11 1014.1 1013.4 0.0
18/03:30am 14.1 9.4 3.0 47 5.0 SE 17 22 9 12 1014.1 1013.4 0.0
18/03:00am 11.6 7.7 3.6 58 3.6 SE 13 17 7 9 1014.3 1013.6 0.0
18/02:30am 10.8 7.0 4.0 63 3.0 SE 13 15 7 8 1014.6 1013.9 0.0
18/02:00am 11.5 8.2 4.3 61 3.3 SE 11 13 6 7 1015.0 1014.4 0.0
18/01:30am 12.2 8.8 3.9 57 3.7 SE 11 13 6 7 1015.3 1014.7 0.0
18/01:00am 12.3 9.3 4.3 58 3.6 SE 9 11 5 6 1015.2 1014.6 0.0
18/12:30am 14.2 10.3 3.4 48 4.9 SE 13 15 7 8 1015.3 1014.7 0.0
18/12:00am 13.5 9.7 4.1 53 4.3 SE 13 15 7 8 1015.3 1014.7 0.0

Other Formats:

Comma delimited format used in spreadsheet applications
http://www.bom.gov.au/fwo/IDD60801/IDD60801.94131.axf

JavaScript Object Notation format (JSON) in row-major order
http://www.bom.gov.au/fwo/IDD60801/IDD60801.94131.json